createdAt,value
2023-04-08T00:04:54.020Z,69.80
2023-04-08T00:09:56.997Z,72.50
2023-04-08T00:14:59.853Z,72.48
2023-04-08T00:20:04.458Z,71.79
2023-04-08T00:25:09.434Z,70.90
2023-04-08T00:30:12.619Z,70.72
2023-04-08T00:35:47.298Z,71.08
2023-04-08T00:40:50.307Z,70.66
2023-04-08T00:45:53.149Z,69.28
2023-04-08T00:51:07.148Z,67.66
2023-04-08T00:56:10.283Z,68.28
2023-04-08T01:01:19.855Z,67.63
2023-04-08T01:06:37.946Z,68.55
2023-04-08T01:11:45.824Z,68.32
2023-04-08T01:16:49.362Z,66.68
2023-04-08T01:21:55.984Z,66.42
2023-04-08T01:27:01.695Z,66.78
2023-04-08T01:32:05.487Z,62.31
2023-04-08T01:37:09.260Z,65.81
2023-04-08T01:42:14.240Z,68.13
2023-04-08T01:47:17.740Z,68.80
2023-04-08T01:52:22.216Z,69.73
2023-04-08T01:57:29.628Z,68.82
2023-04-08T02:02:34.384Z,69.61
2023-04-08T02:07:38.564Z,68.84
2023-04-08T02:12:44.120Z,69.99
2023-04-08T02:17:50.494Z,70.29
2023-04-08T02:23:00.950Z,69.47
2023-04-08T02:28:13.039Z,70.62
2023-04-08T02:33:19.014Z,70.14
2023-04-08T02:38:21.956Z,70.52
2023-04-08T02:43:31.817Z,69.72
2023-04-08T02:48:34.623Z,69.75
2023-04-08T02:53:37.432Z,68.41
2023-04-08T02:58:43.233Z,69.16
2023-04-08T03:03:46.136Z,70.16
2023-04-08T03:08:49.330Z,71.79
2023-04-08T03:13:53.586Z,71.11
2023-04-08T03:18:56.446Z,70.23
2023-04-08T03:23:59.254Z,69.51
2023-04-08T03:29:03.392Z,68.64
2023-04-08T03:34:08.545Z,67.79
2023-04-08T03:39:11.436Z,69.50
2023-04-08T03:44:15.581Z,69.45
2023-04-08T03:49:18.314Z,69.31
2023-04-08T03:54:21.139Z,71.41
2023-04-08T03:59:25.834Z,71.64
2023-04-08T04:04:31.488Z,73.13
2023-04-08T04:09:36.312Z,73.49
2023-04-08T04:14:46.938Z,72.42
2023-04-08T04:19:49.711Z,74.05
2023-04-08T04:24:52.467Z,73.95
2023-04-08T04:29:57.027Z,74.45
2023-04-08T04:34:59.813Z,74.08
2023-04-08T04:40:02.635Z,73.76
2023-04-08T04:45:08.025Z,76.28
2023-04-08T04:50:11.350Z,76.05
2023-04-08T04:55:15.716Z,77.38
2023-04-08T05:00:19.915Z,74.75
2023-04-08T05:05:22.811Z,74.05
2023-04-08T05:10:25.865Z,72.86
2023-04-08T05:15:30.034Z,72.81
2023-04-08T05:20:32.784Z,74.12
2023-04-08T05:25:35.630Z,75.70
2023-04-08T05:30:39.870Z,77.07
2023-04-08T05:35:42.608Z,75.82
2023-04-08T05:40:46.437Z,75.06
2023-04-08T05:45:50.679Z,74.22
2023-04-08T05:50:53.438Z,72.59
2023-04-08T05:55:56.422Z,73.48
2023-04-08T06:01:00.815Z,73.06
2023-04-08T06:06:03.609Z,70.20
2023-04-08T06:11:06.455Z,72.54
2023-04-08T06:16:15.569Z,70.51
2023-04-08T06:21:18.669Z,72.43
2023-04-08T06:26:21.582Z,71.76
2023-04-08T06:31:25.719Z,74.50
2023-04-08T06:36:28.705Z,71.20
2023-04-08T06:41:31.461Z,69.89
2023-04-08T06:46:41.603Z,70.38
2023-04-08T06:51:44.347Z,72.40
2023-04-08T06:56:50.083Z,72.70
2023-04-08T07:01:54.361Z,73.35
2023-04-08T07:06:57.842Z,73.42
2023-04-08T07:12:00.866Z,73.18
2023-04-08T07:17:04.990Z,72.01
2023-04-08T07:22:07.915Z,69.77
2023-04-08T07:27:13.375Z,68.54
2023-04-08T07:32:18.693Z,70.99
2023-04-08T07:37:21.687Z,71.66
2023-04-08T07:42:24.474Z,69.53
2023-04-08T07:47:29.049Z,69.83
2023-04-08T07:52:33.344Z,68.11
2023-04-08T07:57:36.351Z,67.71
2023-04-08T08:02:40.654Z,70.56
2023-04-08T08:07:47.497Z,68.00
2023-04-08T08:12:55.188Z,68.36
2023-04-08T08:17:59.587Z,68.35
2023-04-08T08:23:02.454Z,68.87
2023-04-08T08:28:07.654Z,68.11
2023-04-08T08:33:11.733Z,70.14
2023-04-08T08:38:14.727Z,67.21
2023-04-08T08:43:18.659Z,65.87
2023-04-08T08:48:22.886Z,64.35
2023-04-08T08:53:34.250Z,63.06
2023-04-08T08:58:39.069Z,62.73
2023-04-08T09:03:46.500Z,61.47
2023-04-08T09:08:49.884Z,60.54
2023-04-08T09:13:55.042Z,59.47
2023-04-08T09:19:10.422Z,58.88
2023-04-08T09:24:30.367Z,57.65
2023-04-08T09:29:39.676Z,60.34
2023-04-08T09:34:44.167Z,58.27
2023-04-08T09:39:46.919Z,58.86
2023-04-08T09:44:49.878Z,60.69
2023-04-08T09:50:03.145Z,60.26
2023-04-08T09:55:10.334Z,60.40
2023-04-08T10:00:16.099Z,60.78
2023-04-08T10:05:21.790Z,60.37
2023-04-08T10:10:25.424Z,59.49
2023-04-08T10:15:29.502Z,58.36
2023-04-08T10:20:47.460Z,58.96
2023-04-08T10:25:50.573Z,59.66
2023-04-08T10:30:54.102Z,58.81
2023-04-08T10:36:09.688Z,57.27
2023-04-08T10:41:14.343Z,58.09
2023-04-08T10:46:17.376Z,57.74
2023-04-08T10:51:22.798Z,55.90
2023-04-08T10:56:25.893Z,55.89
2023-04-08T11:01:31.730Z,54.40
2023-04-08T11:06:37.887Z,54.60
2023-04-08T11:11:43.103Z,57.92
2023-04-08T11:16:46.412Z,55.33
2023-04-08T11:21:52.638Z,60.17
2023-04-08T11:26:56.976Z,58.80
2023-04-08T11:32:00.830Z,56.78
2023-04-08T11:37:05.234Z,59.63
2023-04-08T11:42:28.588Z,62.50
2023-04-08T11:47:33.574Z,62.04
2023-04-08T11:52:55.526Z,60.12
2023-04-08T11:58:03.384Z,58.55
2023-04-08T12:03:07.001Z,56.74
2023-04-08T12:08:11.185Z,56.51
2023-04-08T12:13:15.680Z,59.50
2023-04-08T12:18:18.475Z,57.42
2023-04-08T12:23:22.743Z,57.35
2023-04-08T12:28:25.891Z,55.48
2023-04-08T12:33:28.676Z,55.44
2023-04-08T12:38:33.530Z,53.02
2023-04-08T12:43:36.321Z,53.56
2023-04-08T12:48:39.163Z,56.03
2023-04-08T12:53:43.333Z,58.67
2023-04-08T12:58:49.376Z,57.35
2023-04-08T13:03:52.545Z,56.89
2023-04-08T13:08:56.773Z,56.51
2023-04-08T13:13:59.557Z,56.42
2023-04-08T13:19:02.420Z,56.63
2023-04-08T13:24:07.217Z,59.66
2023-04-08T13:29:10.088Z,60.17
2023-04-08T13:34:12.868Z,59.43
2023-04-08T13:39:17.136Z,56.42
2023-04-08T13:44:19.930Z,57.58
2023-04-08T13:49:22.722Z,58.14
2023-04-08T13:54:27.693Z,57.47
2023-04-08T13:59:30.485Z,57.43
2023-04-08T14:04:33.621Z,58.26
2023-04-08T14:09:37.752Z,59.86
2023-04-08T14:14:40.732Z,58.47
2023-04-08T14:19:43.563Z,59.04
2023-04-08T14:24:47.696Z,58.97
2023-04-08T14:29:50.529Z,61.48
2023-04-08T14:34:53.440Z,59.50
2023-04-08T14:39:57.604Z,56.73
2023-04-08T14:45:00.944Z,57.56
2023-04-08T14:50:06.194Z,58.60
2023-04-08T14:55:11.025Z,59.09
2023-04-08T15:00:14.787Z,59.62
2023-04-08T15:05:17.681Z,60.50
2023-04-08T15:10:22.067Z,56.90
2023-04-08T15:15:25.236Z,56.85
2023-04-08T15:20:28.112Z,56.89
2023-04-08T15:25:32.822Z,58.02
2023-04-08T15:30:36.128Z,57.31
2023-04-08T15:35:39.684Z,59.96
2023-04-08T15:40:44.989Z,56.96
2023-04-08T15:45:48.912Z,58.79
2023-04-08T15:50:52.086Z,58.21
2023-04-08T15:55:56.248Z,59.57
2023-04-08T16:00:58.990Z,60.06
2023-04-08T16:06:01.740Z,58.51
2023-04-08T16:11:15.185Z,59.15
2023-04-08T16:16:18.089Z,62.51
2023-04-08T16:21:20.925Z,60.26
2023-04-08T16:26:27.142Z,58.00
2023-04-08T16:36:33.745Z,59.34
2023-04-08T16:41:39.460Z,59.58
2023-04-08T16:46:42.394Z,59.44
2023-04-08T16:51:45.114Z,63.00
2023-04-08T16:56:49.173Z,65.33
2023-04-08T17:01:52.032Z,62.62
2023-04-08T17:06:57.188Z,60.26
2023-04-08T17:12:02.122Z,62.38
2023-04-08T17:17:04.893Z,62.67
2023-04-08T17:22:07.704Z,65.70
2023-04-08T17:27:11.949Z,61.73
2023-04-08T17:32:14.853Z,66.15
2023-04-08T17:37:17.566Z,65.45
2023-04-08T17:42:22.827Z,66.06
2023-04-08T17:47:25.609Z,66.14
2023-04-08T17:52:28.369Z,64.53
2023-04-08T17:57:32.958Z,64.91
2023-04-08T18:02:36.959Z,64.39
2023-04-08T18:07:39.976Z,63.19
2023-04-08T18:12:44.123Z,62.90
2023-04-08T18:17:46.999Z,64.17
2023-04-08T18:22:49.786Z,63.06
2023-04-08T18:27:54.006Z,65.68
2023-04-08T18:32:56.913Z,63.98
2023-04-08T18:37:59.805Z,64.11
2023-04-08T18:43:04.972Z,64.97
2023-04-08T18:48:08.332Z,64.81
2023-04-08T18:53:12.370Z,64.67
2023-04-08T18:58:16.789Z,65.33
2023-04-08T19:03:19.721Z,64.85
2023-04-08T19:08:22.687Z,63.00
2023-04-08T19:13:26.839Z,63.52
2023-04-08T19:18:29.681Z,61.92
2023-04-08T19:23:32.841Z,61.31
2023-04-08T19:28:37.380Z,61.41
2023-04-08T19:33:40.292Z,61.24
2023-04-08T19:38:43.421Z,62.24
2023-04-08T19:43:47.714Z,62.01
2023-04-08T19:48:50.572Z,63.43
2023-04-08T19:53:53.605Z,62.83
2023-04-08T19:58:57.894Z,62.28
2023-04-08T20:04:00.655Z,63.02
2023-04-08T20:09:05.576Z,63.87
2023-04-08T20:14:09.992Z,63.34
2023-04-08T20:19:12.787Z,66.05
2023-04-08T20:24:16.214Z,65.15
2023-04-08T20:29:20.668Z,65.60
2023-04-08T20:34:23.482Z,66.58
2023-04-08T20:39:29.865Z,66.88
2023-04-08T20:44:34.010Z,67.11
2023-04-08T20:49:40.816Z,67.32
2023-04-08T20:54:43.630Z,66.56
2023-04-08T20:59:47.765Z,64.32
2023-04-08T21:04:50.924Z,65.81
2023-04-08T21:09:55.813Z,65.88
2023-04-08T21:15:00.023Z,66.76
2023-04-08T21:20:04.415Z,66.91
2023-04-08T21:25:08.580Z,67.71
2023-04-08T21:30:16.846Z,67.24
2023-04-08T21:35:19.646Z,68.62
2023-04-08T21:40:22.431Z,67.51
2023-04-08T21:45:26.560Z,70.79
2023-04-08T21:50:29.428Z,69.37
2023-04-08T21:55:32.190Z,67.81
2023-04-08T22:00:36.340Z,69.18
2023-04-08T22:05:39.087Z,68.39
2023-04-08T22:10:41.976Z,69.28
2023-04-08T22:15:46.573Z,69.11
2023-04-08T22:20:49.360Z,68.99
2023-04-08T22:25:52.124Z,68.71
2023-04-08T22:30:56.277Z,65.17
2023-04-08T22:35:59.148Z,66.56
2023-04-08T22:41:01.944Z,65.18
2023-04-08T22:46:06.254Z,63.78
2023-04-08T22:51:10.236Z,66.33
2023-04-08T22:56:13.357Z,67.78
2023-04-08T23:01:20.682Z,66.76
2023-04-08T23:06:23.432Z,67.91
2023-04-08T23:11:26.238Z,67.38
2023-04-08T23:16:31.499Z,68.44
2023-04-08T23:21:34.320Z,66.81
2023-04-08T23:26:37.336Z,68.88
2023-04-08T23:31:41.588Z,67.39
2023-04-08T23:36:44.385Z,68.25
2023-04-08T23:41:47.344Z,71.27
2023-04-08T23:46:51.588Z,69.23
2023-04-08T23:51:54.578Z,69.01
2023-04-08T23:56:59.873Z,67.91
